Flight Track Log - Related Links

Times and Time Zones

All times are in EDT time to prevent confusion due to time zone crossing. See the ASQ4577 flight status page for this flight to view local times or setup timezone preferences in your user account.

Time Position Orientation Groundspeed Altitude Reporting Facility
EDT Latitude Longitude Course Direction KTS MPH feet Rate Location/Type
Tue 03:54:25 PM 32.8833 -97.0333 161° South 163 188 1,300  Level Dallas / Fort Worth TRACON
Tue 03:56:01 PM 32.8000 -97.0000 161° South 227 261 3,900 1,731 Climbing Dallas / Fort Worth TRACON
Tue 03:57:01 PM 32.7667 -96.9333 121° Southeast 268 308 5,800 1,950 Climbing Dallas / Fort Worth TRACON
Tue 03:58:01 PM 32.7667 -96.8333 90° East 294 338 7,800 1,619 Climbing Dallas / Fort Worth TRACON
Tue 04:00:10 PM 32.8792 -96.6614 52° Northeast 331 381 10,900 1,302 Climbing Fort Worth Center
Tue 04:01:10 PM 32.9308 -96.5719 55° Northeast 352 405 11,900 1,150 Climbing Fort Worth Center
Tue 04:02:10 PM 33.0031 -96.4622 52° Northeast 375 432 13,200 1,150 Climbing Fort Worth Center
Tue 04:03:10 PM 33.0608 -96.3700 53° Northeast 380 437 14,200 1,200 Climbing Fort Worth Center
Tue 04:04:10 PM 33.1117 -96.2378 65° Northeast 391 450 15,600 1,200 Climbing Fort Worth Center
Tue 04:05:10 PM 33.1461 -96.1233 70° East 403 464 16,600 1,100 Climbing Fort Worth Center
Tue 04:06:10 PM 33.1864 -95.9836 71° East 403 464 17,800 1,150 Climbing Fort Worth Center
Tue 04:07:10 PM 33.2206 -95.8664 71° East 408 470 18,900 1,150 Climbing Fort Worth Center
Tue 04:08:10 PM 33.2625 -95.7242 71° East 408 470 20,100 1,150 Climbing Fort Worth Center
Tue 04:09:10 PM 33.2964 -95.6067 71° East 413 475 21,200 1,200 Climbing Fort Worth Center
Tue 04:10:10 PM 33.3339 -95.4617 73° East 408 470 22,500 1,200 Climbing Fort Worth Center
Tue 04:11:10 PM 33.3756 -95.3289 69° East 408 470 23,600 1,150 Climbing Fort Worth Center
Tue 04:12:10 PM 33.4131 -95.1961 71° East 413 475 24,800 1,150 Climbing Fort Worth Center
Tue 04:13:10 PM 33.4522 -95.0633 70° East 413 475 25,900 1,250 Climbing Fort Worth Center
Tue 04:14:10 PM 33.4894 -94.9353 71° East 408 470 27,300 1,300 Climbing Fort Worth Center
Tue 04:15:10 PM 33.5267 -94.8097 70° East 408 470 28,500 850 Climbing Fort Worth Center
Tue 04:16:10 PM 33.5594 -94.6839 73° East 402 463 29,000 650 Climbing Fort Worth Center
Tue 04:17:10 PM 33.5981 -94.5506 71° East 408 470 29,800 800 Climbing Fort Worth Center
Tue 04:18:10 PM 33.6367 -94.4147 71° East 419 482 30,600 600 Climbing Fort Worth Center
Tue 04:19:10 PM 33.6750 -94.2761 72° East 426 490 31,000 600 Climbing Fort Worth Center
Tue 04:20:10 PM 33.7322 -94.1392 63° Northeast 439 505 31,800 650 Climbing Fort Worth Center
Tue 04:21:10 PM 33.7975 -94.0067 59° Northeast 447 514 32,300 906 Climbing Fort Worth Center
Tue 04:21:56 PM 33.8447 -93.9086 60° Northeast 467 537 33,400 1,245 Climbing Memphis Center
Tue 04:22:56 PM 33.9022 -93.7958 58° Northeast 443 510 34,500 800 Climbing Memphis Center
Tue 04:23:56 PM 33.9642 -93.6681 60° Northeast 438 504 35,000 250 Climbing Memphis Center
Tue 04:24:56 PM 34.0303 -93.5328 59° Northeast 443 510 35,000  Level Memphis Center
Tue 04:25:56 PM 34.0983 -93.3922 60° Northeast 464 534 35,000  Level Memphis Center
Tue 04:26:56 PM 34.1664 -93.2517 60° Northeast 477 549 35,000  Level Memphis Center
Tue 04:27:56 PM 34.2342 -93.1183 58° Northeast 477 549 35,000  Level Memphis Center
Tue 04:28:56 PM 34.3019 -92.9744 60° Northeast 477 549 35,000  Level Memphis Center
Tue 04:29:56 PM 34.3739 -92.8181 61° Northeast 485 558 35,000  Level Memphis Center
Tue 04:30:56 PM 34.4392 -92.6792 60° Northeast 480 552 35,000  Level Memphis Center
Tue 04:31:56 PM 34.5083 -92.5397 59° Northeast 480 552 35,000  Level Memphis Center
Tue 04:32:56 PM 34.5733 -92.4003 60° Northeast 480 552 35,000  Level Memphis Center
Tue 04:33:56 PM 34.6381 -92.2628 60° Northeast 475 547 35,000  Level Memphis Center
Tue 04:34:56 PM 34.7153 -92.1333 54° Northeast 469 540 35,000  Level Memphis Center
Tue 04:35:56 PM 34.8022 -92.0214 47° Northeast 463 533 35,000  Level Memphis Center
Tue 04:36:56 PM 34.8936 -91.9042 46° Northeast 463 533 35,000  Level Memphis Center
Tue 04:37:56 PM 34.9761 -91.7967 47° Northeast 453 521 35,000  Level Memphis Center
Tue 04:38:56 PM 35.0650 -91.6864 45° Northeast 453 521 35,000  Level Memphis Center
Tue 04:39:56 PM 35.1497 -91.5736 47° Northeast 447 514 35,000  Level Memphis Center
Tue 04:40:56 PM 35.2342 -91.4628 47° Northeast 447 514 35,000  Level Memphis Center
Tue 04:41:56 PM 35.3206 -91.3519 46° Northeast 447 514 35,000  Level Memphis Center
Tue 04:42:56 PM 35.4111 -91.2386 46° Northeast 447 514 35,000  Level Memphis Center
Tue 04:43:56 PM 35.4847 -91.1425 47° Northeast 447 514 35,000  Level Memphis Center
Tue 04:44:56 PM 35.5583 -91.0231 53° Northeast 447 514 35,000  Level Memphis Center
Tue 04:45:56 PM 35.6319 -90.9011 53° Northeast 446 513 35,000  Level Memphis Center
Tue 04:46:56 PM 35.7075 -90.7661 55° Northeast 435 501 35,000  Level Memphis Center
Tue 04:47:56 PM 35.7706 -90.6589 54° Northeast 435 501 35,000  Level Memphis Center
Tue 04:48:56 PM 35.8436 -90.5336 54° Northeast 435 501 35,000  Level Memphis Center
Tue 04:49:56 PM 35.9167 -90.4133 53° Northeast 435 501 35,000  Level Memphis Center
Tue 04:50:56 PM 35.9897 -90.2903 54° Northeast 435 501 35,000  Level Memphis Center
Tue 04:51:56 PM 36.0625 -90.1669 54° Northeast 435 501 35,000  Level Memphis Center
Tue 04:52:56 PM 36.1353 -90.0433 54° Northeast 435 501 35,000  Level Memphis Center
Tue 04:53:56 PM 36.2078 -89.9197 54° Northeast 435 501 35,000  Level Memphis Center
Tue 04:54:56 PM 36.2783 -89.7983 54° Northeast 435 501 35,000  Level Memphis Center
Tue 04:55:56 PM 36.3528 -89.6742 53° Northeast 435 501 35,000  Level Memphis Center
Tue 04:56:56 PM 36.4250 -89.5522 54° Northeast 435 501 35,000  Level Memphis Center
Tue 04:57:56 PM 36.5033 -89.4275 52° Northeast 440 506 35,000  Level Memphis Center
Tue 04:58:56 PM 36.5750 -89.2925 57° Northeast 452 520 35,000  Level Memphis Center
Tue 04:59:56 PM 36.6489 -89.1569 56° Northeast 452 520 35,000  Level Memphis Center
Tue 05:00:56 PM 36.7225 -89.0289 54° Northeast 447 514 35,000  Level Memphis Center
Tue 05:01:56 PM 36.7942 -88.9033 54° Northeast 447 514 35,000  Level Memphis Center
Tue 05:02:56 PM 36.8633 -88.7803 55° Northeast 442 509 35,000  Level Memphis Center
Tue 05:03:56 PM 36.9347 -88.6544 55° Northeast 442 509 35,000  Level Memphis Center
Tue 05:04:56 PM 37.0039 -88.5281 56° Northeast 447 514 35,000  Level Memphis Center
Tue 05:05:56 PM 37.0747 -88.3992 55° Northeast 447 514 35,000  Level Memphis Center
Tue 05:06:56 PM 37.1478 -88.2750 54° Northeast 447 514 35,000  Level Memphis Center
Tue 05:08:34 PM 37.2522 -88.0744 57° Northeast 448 516 35,000  Level Indianapolis Center
Tue 05:09:36 PM 37.3219 -87.9464 56° Northeast 443 510 35,000  Level Indianapolis Center
Tue 05:10:38 PM 37.3936 -87.8167 55° Northeast 444 511 35,000  Level Indianapolis Center
Tue 05:11:40 PM 37.4650 -87.6856 56° Northeast 447 514 35,000  Level Indianapolis Center
Tue 05:12:42 PM 37.5472 -87.5333 56° Northeast 448 516 35,000  Level Indianapolis Center
Tue 05:13:44 PM 37.6175 -87.4011 56° Northeast 450 518 35,000  Level Indianapolis Center
Tue 05:14:46 PM 37.6875 -87.2711 56° Northeast 446 513 35,000  Level Indianapolis Center
Tue 05:15:48 PM 37.7617 -87.1358 55° Northeast 446 513 35,000  Level Indianapolis Center
Tue 05:16:50 PM 37.8306 -87.0050 56° Northeast 448 516 35,000  Level Indianapolis Center
Tue 05:17:52 PM 37.9000 -86.8750 56° Northeast 448 516 35,000  Level Indianapolis Center
Tue 05:18:54 PM 37.9689 -86.7447 56° Northeast 448 516 35,000  Level Indianapolis Center
Tue 05:19:56 PM 38.0381 -86.6136 56° Northeast 448 516 35,000  Level Indianapolis Center
Tue 05:20:58 PM 38.1208 -86.4556 56° Northeast 449 517 35,000  Level Indianapolis Center
Tue 05:22:00 PM 38.1897 -86.3236 56° Northeast 448 516 35,000  Level Indianapolis Center
Tue 05:23:02 PM 38.2592 -86.1906 56° Northeast 451 519 35,000  Level Indianapolis Center
Tue 05:24:05 PM 38.3278 -86.0603 56° Northeast 443 510 35,000  Level Indianapolis Center
Tue 05:25:07 PM 38.3956 -85.9278 57° Northeast 446 513 35,000  Level Indianapolis Center
Tue 05:26:09 PM 38.4647 -85.7958 56° Northeast 447 514 35,000  Level Indianapolis Center
Tue 05:27:11 PM 38.5458 -85.6356 57° Northeast 448 516 35,000  Level Indianapolis Center
Tue 05:28:13 PM 38.6128 -85.5042 57° Northeast 442 509 35,000  Level Indianapolis Center
Tue 05:29:15 PM 38.6828 -85.3678 57° Northeast 445 512 35,000  Level Indianapolis Center
Tue 05:30:17 PM 38.7497 -85.2353 57° Northeast 448 516 35,000  Level Indianapolis Center
Tue 05:31:19 PM 38.8158 -85.1036 57° Northeast 442 509 35,000 -613 Level Indianapolis Center
Tue 05:33:00 PM 38.9144 -84.8882 59° Northeast  Level FlightAware Approximate
Tue 05:33:23 PM 38.9567 -84.8208 59° Northeast 456 525 33,100  Level Indianapolis Center
Tue 05:34:25 PM 39.0303 -84.6869 55° Northeast 453 521 32,700 -677 Descending Indianapolis Center
Tue 05:35:27 PM 39.1417 -84.5725 39° Northeast 440 506 31,700 -968 Descending Indianapolis Center
Tue 05:36:29 PM 39.2367 -84.4733 39° Northeast 436 502 30,700 -919 Descending Indianapolis Center
Tue 05:37:31 PM 39.3311 -84.3742 39° Northeast 434 499 29,800 -823 Descending Indianapolis Center
Tue 05:38:33 PM 39.4264 -84.2739 39° Northeast 437 503 29,000 -435 Descending Indianapolis Center
Tue 05:39:35 PM 39.5244 -84.1700 39° Northeast 448 516 28,900  Descending Indianapolis Center
Tue 05:40:37 PM 39.6217 -84.0661 39° Northeast 449 517 29,000 48 Climbing Indianapolis Center
Tue 05:41:39 PM 39.7194 -83.9628 39° Northeast 448 516 29,000  Level Indianapolis Center
Tue 05:42:41 PM 39.8169 -83.8583 39° Northeast 447 514 29,000 -816 Level Indianapolis Center
Tue 05:43:44 PM 39.9311 -83.7378 39° Northeast 444 511 27,300 -1,824 Descending Indianapolis Center
Tue 05:44:46 PM 40.0300 -83.6311 40° Northeast 449 517 25,200 -1,597 Descending Indianapolis Center
Tue 05:45:48 PM 40.1286 -83.5250 39° Northeast 450 518 24,000 -726 Descending Indianapolis Center
Tue 05:46:50 PM 40.2233 -83.4203 40° Northeast 443 510 23,700 -1,065 Descending Indianapolis Center
Tue 05:47:52 PM 40.3136 -83.3067 44° Northeast 444 511 21,800 -1,887 Descending Indianapolis Center
Tue 05:48:54 PM 40.3969 -83.2003 44° Northeast 417 480 19,800 -1,597 Descending Indianapolis Center
Tue 05:49:56 PM 40.4786 -83.0947 44° Northeast 410 472 18,500 -871 Descending Indianapolis Center
Tue 05:50:58 PM 40.5581 -82.9936 44° Northeast 402 463 18,000 -532 Descending Indianapolis Center
Tue 05:52:00 PM 40.6367 -82.8903 45° Northeast 396 456 17,400 -968 Descending Indianapolis Center
Tue 05:53:02 PM 40.7303 -82.7700 44° Northeast 399 459 16,000 -1,645 Descending Indianapolis Center
Tue 05:54:04 PM 40.8100 -82.6669 44° Northeast 398 458 14,000 -2,226 Descending Indianapolis Center
Tue 05:55:06 PM 40.8856 -82.5661 45° Northeast 385 443 11,400 -2,500 Descending Indianapolis Center
Tue 05:55:28 PM 40.9178 -82.5286 41° Northeast 383 441 10,500 -1,333 Descending Cleveland Center
Tue 05:56:09 PM 40.9583 -82.4692 48° Northeast 383 441 10,000 -448 Descending Cleveland Center
Tue 05:56:35 PM 40.9989 -82.4181 44° Northeast 377 434 10,000  Level Cleveland Center
Tue 05:57:09 PM 41.0414 -82.3589 46° Northeast 378 435 10,000  Level Cleveland Center
Tue 05:57:36 PM 41.0753 -82.3211 40° Northeast 383 441 10,000  Level Cleveland Center
Tue 05:58:09 PM 41.1181 -82.2589 48° Northeast 378 435 10,000 98 Level Cleveland Center
Tue 05:58:37 PM 41.1542 -82.2128 44° Northeast 388 447 10,100  Climbing Cleveland Center
Tue 05:59:09 PM 41.1925 -82.1586 47° Northeast 378 435 10,000  Descending Cleveland Center
Tue 05:59:38 PM 41.2283 -82.1128 44° Northeast 380 437 10,100  Climbing Cleveland Center
Tue 06:00:09 PM 41.2686 -82.0694 39° Northeast 371 427 10,000 -90 Descending Cleveland Center
Tue 06:00:45 PM 41.3067 -82.0261 41° Northeast 312 359 10,000 -500 Level Cleveland Center
Tue 06:01:09 PM 41.3364 -81.9964 37° Northeast 336 387 9,500 -1,600 Descending Cleveland Center
Tue 06:01:45 PM 41.3742 -81.9639 33° Northeast 277 319 8,400 -1,900 Descending Cleveland Center
Tue 06:02:09 PM 41.4017 -81.9394 34° Northeast 290 334 7,600 -1,418 Descending Cleveland Center
Tue 06:02:40 PM 41.4353 -81.9153 28° Northeast 276 318 7,100 -500 Descending Cleveland Center
Tue 06:03:09 PM 41.4606 -81.8936 33° Northeast 278 320 7,100 -90 Level Cleveland Center
Tue 06:03:47 PM 41.4983 -81.8583 35° Northeast 220 253 7,000 -100 Descending Cleveland Center
Tue 06:04:09 PM 41.5069 -81.8392 59° Northeast 244 281 7,000  Level Cleveland Center
Tue 06:04:42 PM 41.5303 -81.8036 49° Northeast 203 234 7,000 60 Level Cleveland Center
Tue 06:05:49 PM 41.5706 -81.7350 52° Northeast 208 239 7,100 -90 Climbing Cleveland Center
Tue 06:06:56 PM 41.6172 -81.6692 47° Northeast 217 250 6,800 -703 Descending Cleveland Center
Tue 06:07:57 PM 41.5989 -81.5994 109° East 213 245 5,600 -1,033 Descending Cleveland Center
Tue 06:08:58 PM 41.5636 -81.6072 189° South 163 188 4,700 -776 Descending Cleveland Center
Tue 06:09:53 PM 41.5381 -81.6539 234° Southwest 161 185 4,100 -655 Descending Cleveland Center

Login

Don't have an account? Register now (free) for customized features, flight alerts, and more!